地図

経路データ

SID SEASON NUMBER BASIN SUBBASIN NAME ISO_TIME NATURE LAT LON WMO_WIND WMO_PRES WMO_AGENCY TRACK_TYPE DIST2LAND LANDFALL IFLAG USA_AGENCY USA_ATCF_ID USA_LAT USA_LON USA_RECORD USA_STATUS USA_WIND USA_PRES USA_SSHS USA_R34_NE USA_R34_SE USA_R34_SW USA_R34_NW USA_R50_NE USA_R50_SE USA_R50_SW USA_R50_NW USA_R64_NE USA_R64_SE USA_R64_SW USA_R64_NW USA_POCI USA_ROCI USA_RMW USA_EYE TOKYO_LAT TOKYO_LON TOKYO_GRADE TOKYO_WIND TOKYO_PRES TOKYO_R50_DIR TOKYO_R50_LONG TOKYO_R50_SHORT TOKYO_R30_DIR TOKYO_R30_LONG TOKYO_R30_SHORT TOKYO_LAND CMA_LAT CMA_LON CMA_CAT CMA_WIND CMA_PRES HKO_LAT HKO_LON HKO_CAT HKO_WIND HKO_PRES NEWDELHI_LAT NEWDELHI_LON NEWDELHI_GRADE NEWDELHI_WIND NEWDELHI_PRES NEWDELHI_CI NEWDELHI_DP NEWDELHI_POCI REUNION_LAT REUNION_LON REUNION_TYPE REUNION_WIND REUNION_PRES REUNION_TNUM REUNION_CI REUNION_RMW REUNION_R34_NE REUNION_R34_SE REUNION_R34_SW REUNION_R34_NW REUNION_R50_NE REUNION_R50_SE REUNION_R50_SW REUNION_R50_NW REUNION_R64_NE REUNION_R64_SE REUNION_R64_SW REUNION_R64_NW BOM_LAT BOM_LON BOM_TYPE BOM_WIND BOM_PRES BOM_TNUM BOM_CI BOM_RMW BOM_R34_NE BOM_R34_SE BOM_R34_SW BOM_R34_NW BOM_R50_NE BOM_R50_SE BOM_R50_SW BOM_R50_NW BOM_R64_NE BOM_R64_SE BOM_R64_SW BOM_R64_NW BOM_ROCI BOM_POCI BOM_EYE BOM_POS_METHOD BOM_PRES_METHOD NADI_LAT NADI_LON NADI_CAT NADI_WIND NADI_PRES WELLINGTON_LAT WELLINGTON_LON WELLINGTON_WIND WELLINGTON_PRES DS824_LAT DS824_LON DS824_STAGE DS824_WIND DS824_PRES TD9636_LAT TD9636_LON TD9636_STAGE TD9636_WIND TD9636_PRES TD9635_LAT TD9635_LON TD9635_WIND TD9635_PRES TD9635_ROCI NEUMANN_LAT NEUMANN_LON NEUMANN_CLASS NEUMANN_WIND NEUMANN_PRES MLC_LAT MLC_LON MLC_CLASS MLC_WIND MLC_PRES USA_GUST BOM_GUST BOM_GUST_PER REUNION_GUST REUNION_GUST_PER USA_SEAHGT USA_SEARAD_NE USA_SEARAD_SE USA_SEARAD_SW USA_SEARAD_NW STORM_SPEED STORM_DIR
1920309N08145 1920 50 WP MM NOT_NAMED 1920-11-04 09:00:00 NR 7.90000 145.400 main 1128 1128 __________O___ -1 7.90000 145.400 2 15 320
1920309N08145 1920 50 WP MM NOT_NAMED 1920-11-04 12:00:00 NR 8.47097 144.913 main 1202 1202 __________P___ -1 8.47097 144.913 2 15 320
1920309N08145 1920 50 WP MM NOT_NAMED 1920-11-04 15:00:00 NR 9.00333 144.459 main 1265 1265 __________P___ -1 9.00333 144.459 2 13 320
1920309N08145 1920 50 WP MM NOT_NAMED 1920-11-04 18:00:00 NR 9.45896 144.076 main 1329 1329 __________P___ -1 9.45896 144.076 2 10 321
1920309N08145 1920 50 WP MM NOT_NAMED 1920-11-04 21:00:00 NR 9.80000 143.800 main 1369 1369 __________O___ -1 9.80000 143.800 2 7 323
1920309N08145 1920 50 WP MM NOT_NAMED 1920-11-05 00:00:00 NR 10.0034 143.653 main 1393 1393 __________P___ -1 10.0034 143.653 2 4 328
1920309N08145 1920 50 WP MM NOT_NAMED 1920-11-05 03:00:00 NR 10.1046 143.602 main 1406 1406 __________P___ -1 10.1046 143.602 2 2 342
1920309N08145 1920 50 WP MM NOT_NAMED 1920-11-05 06:00:00 NR 10.1535 143.600 main 1417 1417 __________P___ -1 10.1535 143.600 2 1 350
1920309N08145 1920 50 WP MM NOT_NAMED 1920-11-05 09:00:00 NR 10.2000 143.600 main 1417 1417 __________O___ -1 10.2000 143.600 2 1 341
1920309N08145 1920 50 WP MM NOT_NAMED 1920-11-05 12:00:00 NR 10.2934 143.548 main 1431 1431 __________P___ -1 10.2934 143.548 2 2 330
1920309N08145 1920 50 WP MM NOT_NAMED 1920-11-05 15:00:00 NR 10.3974 143.487 main 1442 1442 __________P___ -1 10.3974 143.487 2 3 330
1920309N08145 1920 50 WP MM NOT_NAMED 1920-11-05 18:00:00 NR 10.5278 143.408 main 1455 1455 __________P___ -1 10.5278 143.408 2 4 329
1920309N08145 1920 50 WP MM NOT_NAMED 1920-11-05 21:00:00 NR 10.7000 143.300 main 1480 1480 __________O___ -1 10.7000 143.300 2 5 327
1920309N08145 1920 50 WP MM NOT_NAMED 1920-11-06 00:00:00 NR 10.9279 143.146 main 1501 1501 __________P___ -1 10.9279 143.146 2 6 327
1920309N08145 1920 50 WP MM NOT_NAMED 1920-11-06 03:00:00 NR 11.1976 142.965 main 1529 1525 __________P___ -1 11.1976 142.965 2 7 327
1920309N08145 1920 50 WP MM NOT_NAMED 1920-11-06 06:00:00 NR 11.4935 142.777 main 1553 1549 __________P___ -1 11.4935 142.777 2 7 329
1920309N08145 1920 50 WP MM NOT_NAMED 1920-11-06 09:00:00 NR 11.8000 142.600 main 1578 1578 __________O___ -1 11.8000 142.600 2 7 331
1920309N08145 1920 50 WP MM NOT_NAMED 1920-11-06 12:00:00 NR 12.0928 142.440 main 1603 1603 __________P___ -1 12.0928 142.440 2 7 334
1920309N08145 1920 50 WP MM NOT_NAMED 1920-11-06 15:00:00 NR 12.3925 142.298 main 1632 1632 __________P___ -1 12.3925 142.298 2 7 337
1920309N08145 1920 50 WP MM NOT_NAMED 1920-11-06 18:00:00 NR 12.6959 142.181 main 1661 1661 __________P___ -1 12.6959 142.181 2 6 342
1920309N08145 1920 50 WP MM NOT_NAMED 1920-11-06 21:00:00 NR 13.0000 142.100 main 1690 1690 __________O___ -1 13.0000 142.100 2 6 348
1920309N08145 1920 50 WP MM NOT_NAMED 1920-11-07 00:00:00 NR 13.2878 142.056 main 1721 1721 __________P___ -1 13.2878 142.056 2 6 354
1920309N08145 1920 50 WP MM NOT_NAMED 1920-11-07 03:00:00 NR 13.5775 142.047 main 1747 1747 __________P___ -1 13.5775 142.047 2 6 1
1920309N08145 1920 50 WP MM NOT_NAMED 1920-11-07 06:00:00 NR 13.8784 142.065 main 1783 1783 __________P___ -1 13.8784 142.065 2 6 6
1920309N08145 1920 50 WP MM NOT_NAMED 1920-11-07 09:00:00 NR 14.2000 142.100 main 1805 1805 __________O___ -1 14.2000 142.100 2 7 7
1920309N08145 1920 50 WP MM NOT_NAMED 1920-11-07 12:00:00 NR 14.5488 142.143 main 1811 1811 __________P___ -1 14.5488 142.143 2 7 7
1920309N08145 1920 50 WP MM NOT_NAMED 1920-11-07 15:00:00 NR 14.9200 142.192 main 1830 1830 __________P___ -1 14.9200 142.192 2 8 8
1920309N08145 1920 50 WP MM NOT_NAMED 1920-11-07 18:00:00 NR 15.3063 142.245 main 1837 1837 __________P___ -1 15.3063 142.245 2 8 8
1920309N08145 1920 50 WP MM NOT_NAMED 1920-11-07 21:00:00 NR 15.7000 142.300 main 1855 __________O___ -1 15.7000 142.300 2 8 8

デジタル台風データ・検索

IBTrACS Databaseについて

本データベースは、米国NOAAが公開する1842年以降の世界の熱帯低気圧のベストトラックデータアーカイブInternational Best Track Archive for Climate Stewardship (IBTrACS)を、ウェブで閲覧しやすい形式に変換したものです。

最終更新日:2021-11-26